createdAt,value
2018-12-25T00:02:07.464Z,98273.35
2018-12-25T00:04:33.267Z,98246.91
2018-12-25T00:06:59.116Z,98242.27
2018-12-25T00:09:24.974Z,98238.36
2018-12-25T00:11:50.878Z,98228.91
2018-12-25T00:14:16.766Z,98227.95
2018-12-25T00:16:42.645Z,98229.83
2018-12-25T00:19:08.488Z,98233.43
2018-12-25T00:21:34.383Z,98229.69
2018-12-25T00:24:00.198Z,98224.55
2018-12-25T00:26:26.025Z,98226.44
2018-12-25T00:28:51.858Z,98231.14
2018-12-25T00:31:17.862Z,98230.34
2018-12-25T00:33:43.708Z,98236.86
2018-12-25T00:36:09.575Z,98240.59
2018-12-25T00:38:35.418Z,98246.38
2018-12-25T00:41:01.269Z,98244.66
2018-12-25T00:43:27.119Z,98243.99
2018-12-25T00:45:52.942Z,98251.58
2018-12-25T00:48:18.796Z,98258.09
2018-12-25T00:50:44.626Z,98257.58
2018-12-25T00:53:10.569Z,98269.52
2018-12-25T00:55:36.408Z,98279.31
2018-12-25T00:58:02.255Z,98296.70
2018-12-25T01:00:28.090Z,98299.31
2018-12-25T01:02:53.943Z,98302.23
2018-12-25T01:05:21.694Z,98298.04
2018-12-25T01:07:47.567Z,98299.96
2018-12-25T01:10:14.529Z,98304.81
2018-12-25T01:12:40.362Z,98308.78
2018-12-25T01:15:06.183Z,98299.96
2018-12-25T01:17:32.062Z,98296.34
2018-12-25T01:19:58.060Z,98292.16
2018-12-25T01:22:23.881Z,98302.13
2018-12-25T01:24:49.743Z,98306.95
2018-12-25T01:27:15.560Z,98302.89
2018-12-25T01:29:41.411Z,98300.19
2018-12-25T01:32:08.020Z,98309.14
2018-12-25T01:34:33.834Z,98308.92
2018-12-25T01:36:59.672Z,98302.24
2018-12-25T01:39:25.517Z,98312.66
2018-12-25T01:41:51.313Z,98326.38
2018-12-25T01:44:17.166Z,98317.81
2018-12-25T01:46:43.018Z,98318.91
2018-12-25T01:49:08.843Z,98323.06
2018-12-25T01:51:34.663Z,98329.53
2018-12-25T01:54:00.509Z,98338.97
2018-12-25T01:56:26.379Z,98334.38
2018-12-25T01:58:52.182Z,98330.69
2018-12-25T02:01:18.015Z,98327.52
2018-12-25T02:03:43.844Z,98323.86
2018-12-25T02:06:09.948Z,98321.11
2018-12-25T02:08:35.757Z,98313.34
2018-12-25T02:11:02.111Z,98307.15
2018-12-25T02:13:27.992Z,98306.03
2018-12-25T02:15:53.826Z,98311.79
2018-12-25T02:18:19.632Z,98299.81
2018-12-25T02:20:45.442Z,98297.65
2018-12-25T02:23:11.279Z,98296.52
2018-12-25T02:25:37.336Z,98293.86
2018-12-25T02:28:03.263Z,98292.09
2018-12-25T02:30:29.091Z,98297.36
2018-12-25T02:32:54.944Z,98298.55
2018-12-25T02:35:20.761Z,98303.68
2018-12-25T02:37:46.592Z,98295.55
2018-12-25T02:40:12.422Z,98303.14
2018-12-25T02:42:38.253Z,98306.11
2018-12-25T02:45:04.066Z,98305.56
2018-12-25T02:47:29.891Z,98305.74
2018-12-25T02:49:55.706Z,98311.95
2018-12-25T02:52:21.547Z,98302.88
2018-12-25T02:54:47.373Z,98309.36
2018-12-25T02:57:13.293Z,98300.06
2018-12-25T02:59:39.199Z,98291.59
2018-12-25T03:02:05.026Z,98291.19
2018-12-25T03:04:30.854Z,98284.07
2018-12-25T03:06:56.797Z,98285.59
2018-12-25T03:09:22.616Z,98284.89
2018-12-25T03:11:48.438Z,98282.77
2018-12-25T03:14:14.286Z,98271.70
2018-12-25T03:16:40.123Z,98266.87
2018-12-25T03:19:05.952Z,98272.91
2018-12-25T03:21:31.767Z,98267.42
2018-12-25T03:23:57.594Z,98276.82
2018-12-25T03:26:23.426Z,98278.94
2018-12-25T03:28:49.266Z,98280.73
2018-12-25T03:31:15.153Z,98281.13
2018-12-25T03:33:40.971Z,98274.44
2018-12-25T03:36:06.781Z,98273.13
2018-12-25T03:38:32.603Z,98262.58
2018-12-25T03:40:58.425Z,98266.53
2018-12-25T03:43:24.265Z,98256.07
2018-12-25T03:45:50.339Z,98256.55
2018-12-25T03:48:16.185Z,98259.02
2018-12-25T03:50:41.997Z,98255.76
2018-12-25T03:53:07.822Z,98250.28
2018-12-25T03:55:33.647Z,98254.20
2018-12-25T03:57:59.524Z,98247.63
2018-12-25T04:00:25.333Z,98251.52
2018-12-25T04:02:51.162Z,98257.73
2018-12-25T04:05:16.983Z,98254.84
2018-12-25T04:07:43.097Z,98255.78
2018-12-25T04:10:08.898Z,98259.02
2018-12-25T04:12:34.750Z,98254.96
2018-12-25T04:15:00.576Z,98273.55
2018-12-25T04:17:26.401Z,98249.55
2018-12-25T04:19:52.204Z,98249.27
2018-12-25T04:22:18.021Z,98248.06
2018-12-25T04:24:43.941Z,98244.28
2018-12-25T04:27:09.777Z,98249.41
2018-12-25T04:29:35.588Z,98259.40
2018-12-25T04:32:01.429Z,98258.16
2018-12-25T04:34:27.234Z,98244.95
2018-12-25T04:36:53.050Z,98252.95
2018-12-25T04:39:18.891Z,98255.20
2018-12-25T04:41:44.698Z,98251.22
2018-12-25T04:44:10.579Z,98255.28
2018-12-25T04:46:36.470Z,98254.70
2018-12-25T04:49:02.354Z,98255.78
2018-12-25T04:51:28.169Z,98248.98
2018-12-25T04:53:54.018Z,98259.30
2018-12-25T04:56:23.366Z,98264.00
2018-12-25T04:58:49.266Z,98269.06
2018-12-25T05:01:15.169Z,98266.53
2018-12-25T05:03:41.008Z,98257.10
2018-12-25T05:06:06.822Z,98258.84
2018-12-25T05:08:32.637Z,98258.63
2018-12-25T05:10:58.455Z,98260.43
2018-12-25T05:13:24.291Z,98263.13
2018-12-25T05:15:50.130Z,98263.32
2018-12-25T05:18:15.948Z,98263.34
2018-12-25T05:20:41.765Z,98269.06
2018-12-25T05:23:07.738Z,98261.25
2018-12-25T05:25:33.547Z,98261.61
2018-12-25T05:27:59.434Z,98263.53
2018-12-25T05:30:25.362Z,98265.84
2018-12-25T05:32:51.207Z,98253.42
2018-12-25T05:35:17.103Z,98256.81
2018-12-25T05:37:42.930Z,98251.20
2018-12-25T05:40:08.751Z,98252.72
2018-12-25T05:42:34.584Z,98255.33
2018-12-25T05:45:00.399Z,98265.09
2018-12-25T05:47:26.222Z,98270.87
2018-12-25T05:49:52.046Z,98275.06
2018-12-25T05:52:17.881Z,98277.66
2018-12-25T05:54:43.684Z,98271.45
2018-12-25T05:57:09.503Z,98275.64
2018-12-25T05:59:35.319Z,98275.49
2018-12-25T06:02:01.134Z,98271.45
2018-12-25T06:04:26.958Z,98275.34
2018-12-25T06:06:52.774Z,98274.05
2018-12-25T06:09:18.590Z,98269.64
2018-12-25T06:11:44.415Z,98275.71
2018-12-25T06:14:10.373Z,98278.67
2018-12-25T06:16:36.178Z,98276.32
2018-12-25T06:19:02.108Z,98278.84
2018-12-25T06:21:28.022Z,98281.59
2018-12-25T06:23:53.842Z,98279.93
2018-12-25T06:26:19.676Z,98280.66
2018-12-25T06:28:45.497Z,98268.66
2018-12-25T06:31:11.322Z,98273.93
2018-12-25T06:33:37.149Z,98277.95
2018-12-25T06:36:02.960Z,98269.64
2018-12-25T06:38:28.826Z,98264.50
2018-12-25T06:40:54.635Z,98271.39
2018-12-25T06:43:20.447Z,98278.70
2018-12-25T06:45:46.263Z,98274.73
2018-12-25T06:48:12.105Z,98275.86
2018-12-25T06:50:37.934Z,98274.41
2018-12-25T06:53:03.786Z,98265.47
2018-12-25T06:55:29.603Z,98269.80
2018-12-25T06:57:55.414Z,98281.20
2018-12-25T07:00:21.233Z,98270.55
2018-12-25T07:02:47.080Z,98273.66
2018-12-25T07:05:12.886Z,98271.63
2018-12-25T07:07:38.717Z,98271.41
2018-12-25T07:10:04.546Z,98269.64
2018-12-25T07:12:30.501Z,98274.05
2018-12-25T07:14:56.361Z,98278.63
2018-12-25T07:17:22.190Z,98261.78
2018-12-25T07:19:48.037Z,98262.16
2018-12-25T07:22:13.837Z,98260.98
2018-12-25T07:24:39.967Z,98265.05
2018-12-25T07:27:05.812Z,98260.36
2018-12-25T07:29:31.647Z,98265.80
2018-12-25T07:31:57.484Z,98271.73
2018-12-25T07:34:23.316Z,98269.31
2018-12-25T07:36:49.136Z,98272.57
2018-12-25T07:39:15.123Z,98273.79
2018-12-25T07:41:40.926Z,98272.19
2018-12-25T07:44:06.748Z,98278.80
2018-12-25T07:46:32.563Z,98275.02
2018-12-25T07:48:58.520Z,98272.65
2018-12-25T07:51:24.333Z,98271.11
2018-12-25T07:53:50.148Z,98280.77
2018-12-25T07:56:15.977Z,98283.26
2018-12-25T07:58:41.823Z,98288.03
2018-12-25T08:01:07.687Z,98291.64
2018-12-25T08:03:33.538Z,98291.81
2018-12-25T08:05:59.348Z,98292.00
2018-12-25T08:08:25.189Z,98282.89
2018-12-25T08:10:51.015Z,98287.30
2018-12-25T08:13:16.868Z,98293.23
2018-12-25T08:15:42.698Z,98281.19
2018-12-25T08:18:08.555Z,98280.39
2018-12-25T08:20:34.392Z,98282.05
2018-12-25T08:23:02.644Z,98289.26
2018-12-25T08:25:27.936Z,98293.84
2018-12-25T08:27:53.775Z,98290.52
2018-12-25T08:30:19.575Z,98279.73
2018-12-25T08:32:45.665Z,98274.38
2018-12-25T08:35:11.492Z,98281.33
2018-12-25T08:37:37.321Z,98282.34
2018-12-25T08:40:03.178Z,98281.81
2018-12-25T08:42:29.033Z,98289.20
2018-12-25T08:44:54.881Z,98285.52
2018-12-25T08:47:20.683Z,98289.06
2018-12-25T08:49:46.526Z,98288.88
2018-12-25T08:52:12.349Z,98290.33
2018-12-25T08:54:39.018Z,98295.97
2018-12-25T08:57:05.095Z,98299.38
2018-12-25T08:59:30.944Z,98300.22
2018-12-25T09:01:56.777Z,98287.27
2018-12-25T09:04:22.646Z,98280.18
2018-12-25T09:06:48.452Z,98282.50
2018-12-25T09:09:14.304Z,98277.73
2018-12-25T09:11:40.141Z,98285.32
2018-12-25T09:14:05.963Z,98291.88
2018-12-25T09:16:31.769Z,98279.96
2018-12-25T09:18:57.582Z,98277.37
2018-12-25T09:21:23.422Z,98255.45
2018-12-25T09:23:49.591Z,98262.59
2018-12-25T09:26:15.437Z,98271.66
2018-12-25T09:28:41.280Z,98259.36
2018-12-25T09:31:07.110Z,98242.36
2018-12-25T09:33:32.946Z,98240.04
2018-12-25T09:35:58.778Z,98247.41
2018-12-25T09:38:24.644Z,98237.20
2018-12-25T09:40:50.469Z,98245.81
2018-12-25T09:43:16.290Z,98254.44
2018-12-25T09:45:42.119Z,98267.22
2018-12-25T09:48:13.284Z,98252.03
2018-12-25T09:50:35.714Z,98227.63
2018-12-25T09:53:01.605Z,98237.34
2018-12-25T09:55:27.390Z,98237.92
2018-12-25T09:57:53.227Z,98244.50
2018-12-25T10:00:19.432Z,98258.20
2018-12-25T10:02:45.294Z,98249.27
2018-12-25T10:05:11.116Z,98243.99
2018-12-25T10:07:36.952Z,98241.61
2018-12-25T10:10:04.329Z,98235.60
2018-12-25T10:12:30.198Z,98233.73
2018-12-25T10:14:56.019Z,98229.18
2018-12-25T10:17:21.857Z,98223.38
2018-12-25T10:19:47.698Z,98235.31
2018-12-25T10:22:13.526Z,98239.31
2018-12-25T10:24:39.374Z,98243.57
2018-12-25T10:27:05.209Z,98248.87
2018-12-25T10:29:31.031Z,98241.63
2018-12-25T10:31:56.901Z,98243.42
2018-12-25T10:34:22.744Z,98244.72
2018-12-25T10:36:48.551Z,98240.87
2018-12-25T10:39:14.571Z,98231.47
2018-12-25T10:41:40.392Z,98226.48
2018-12-25T10:44:06.232Z,98215.61
2018-12-25T10:46:32.047Z,98216.34
2018-12-25T10:48:57.981Z,98219.46
2018-12-25T10:51:23.919Z,98214.19
2018-12-25T10:53:50.042Z,98208.97
2018-12-25T10:56:15.887Z,98220.98
2018-12-25T10:58:41.729Z,98221.08
2018-12-25T11:01:09.963Z,98229.24
2018-12-25T11:03:35.795Z,98238.81
2018-12-25T11:06:01.648Z,98241.61
2018-12-25T11:08:27.478Z,98235.89
2018-12-25T11:10:53.319Z,98236.17
2018-12-25T11:13:19.147Z,98228.25
2018-12-25T11:15:45.004Z,98224.09
2018-12-25T11:18:10.832Z,98217.52
2018-12-25T11:20:36.676Z,98219.23
2018-12-25T11:23:02.489Z,98220.75
2018-12-25T11:25:28.332Z,98224.38
2018-12-25T11:27:54.168Z,98228.41
2018-12-25T11:30:19.980Z,98226.09
2018-12-25T11:32:45.834Z,98217.05
2018-12-25T11:35:11.759Z,98226.92
2018-12-25T11:37:37.598Z,98225.95
2018-12-25T11:40:04.085Z,98227.55
2018-12-25T11:42:29.929Z,98242.98
2018-12-25T11:44:55.763Z,98234.59
2018-12-25T11:47:21.598Z,98232.48
2018-12-25T11:49:47.418Z,98240.30
2018-12-25T11:52:13.247Z,98243.08
2018-12-25T11:54:39.068Z,98251.98
2018-12-25T11:57:04.888Z,98244.77
2018-12-25T11:59:30.747Z,98247.95
2018-12-25T12:01:56.562Z,98250.16
2018-12-25T12:04:22.399Z,98245.04
2018-12-25T12:06:48.225Z,98243.05
2018-12-25T12:09:14.038Z,98241.22
2018-12-25T12:11:39.886Z,98239.74
2018-12-25T12:14:05.720Z,98239.11
2018-12-25T12:16:31.542Z,98233.44
2018-12-25T12:18:57.392Z,98238.84
2018-12-25T12:21:23.221Z,98248.33
2018-12-25T12:23:49.048Z,98256.09
2018-12-25T12:26:14.893Z,98252.19
2018-12-25T12:28:40.724Z,98245.87
2018-12-25T12:31:06.578Z,98235.20
2018-12-25T12:33:32.461Z,98258.53
2018-12-25T12:35:58.304Z,98255.87
2018-12-25T12:38:24.144Z,98249.64
2018-12-25T12:40:49.990Z,98254.29
2018-12-25T12:43:15.820Z,98253.15
2018-12-25T12:45:41.668Z,98246.41
2018-12-25T12:48:07.494Z,98238.80
2018-12-25T12:50:33.325Z,98235.45
2018-12-25T12:52:59.168Z,98237.30
2018-12-25T12:55:24.979Z,98238.21
2018-12-25T12:57:50.815Z,98241.02
2018-12-25T13:00:16.657Z,98258.22
2018-12-25T13:02:42.485Z,98268.52
2018-12-25T13:05:08.354Z,98258.12
2018-12-25T13:07:34.202Z,98249.05
2018-12-25T13:10:00.031Z,98253.04
2018-12-25T13:12:25.863Z,98253.83
2018-12-25T13:14:51.684Z,98254.41
2018-12-25T13:17:17.518Z,98250.06
2018-12-25T13:19:43.360Z,98254.02
2018-12-25T13:22:09.420Z,98252.25
2018-12-25T13:24:35.206Z,98241.22
2018-12-25T13:27:01.011Z,98250.38
2018-12-25T13:29:26.864Z,98252.59
2018-12-25T13:31:52.690Z,98258.20
2018-12-25T13:34:18.610Z,98257.42
2018-12-25T13:36:44.459Z,98261.09
2018-12-25T13:39:10.336Z,98263.94
2018-12-25T13:41:36.166Z,98270.63
2018-12-25T13:44:02.071Z,98259.80
2018-12-25T13:46:27.879Z,98266.09
2018-12-25T13:48:53.721Z,98268.52
2018-12-25T13:51:19.581Z,98265.86
2018-12-25T13:53:45.434Z,98266.20
2018-12-25T13:56:11.532Z,98263.64
2018-12-25T13:58:37.388Z,98270.23
2018-12-25T14:01:03.333Z,98272.27
2018-12-25T14:03:29.142Z,98273.66
2018-12-25T14:05:55.021Z,98271.53
2018-12-25T14:08:20.866Z,98280.16
2018-12-25T14:10:46.746Z,98284.20
2018-12-25T14:13:12.564Z,98288.43
2018-12-25T14:15:38.695Z,98284.17
2018-12-25T14:18:04.562Z,98285.87
2018-12-25T14:20:30.406Z,98232.50
2018-12-25T14:22:56.355Z,98290.53
2018-12-25T14:25:22.180Z,98295.85
2018-12-25T14:27:47.995Z,98300.17
2018-12-25T14:30:13.847Z,98310.47
2018-12-25T14:32:39.795Z,98307.77
2018-12-25T14:35:05.626Z,98309.80
2018-12-25T14:37:31.480Z,98313.41
2018-12-25T14:39:57.429Z,98321.52
2018-12-25T14:42:23.274Z,98322.05
2018-12-25T14:44:49.153Z,98325.73
2018-12-25T14:47:14.983Z,98318.98
2018-12-25T14:49:40.815Z,98327.32
2018-12-25T14:52:06.631Z,98323.28
2018-12-25T14:54:32.460Z,98320.90
2018-12-25T14:56:58.293Z,98321.48
2018-12-25T14:59:24.252Z,98326.47
2018-12-25T15:01:50.474Z,98336.39
2018-12-25T15:04:16.335Z,98336.61
2018-12-25T15:06:42.172Z,98333.27
2018-12-25T15:09:08.023Z,98334.58
2018-12-25T15:11:33.860Z,98343.58
2018-12-25T15:13:59.693Z,98343.36
2018-12-25T15:16:25.539Z,98335.03
2018-12-25T15:18:51.358Z,98332.77
2018-12-25T15:21:17.225Z,98333.20
2018-12-25T15:23:43.049Z,98334.58
2018-12-25T15:26:08.894Z,98331.75
2018-12-25T15:28:34.717Z,98329.92
2018-12-25T15:31:00.600Z,98334.35
2018-12-25T15:33:26.448Z,98334.80
2018-12-25T15:35:52.298Z,98331.33
2018-12-25T15:38:18.231Z,98324.87
2018-12-25T15:40:44.055Z,98319.31
2018-12-25T15:43:09.920Z,98314.95
2018-12-25T15:45:35.767Z,98319.73
2018-12-25T15:48:01.599Z,98321.83
2018-12-25T15:50:27.428Z,98315.81
2018-12-25T15:52:53.418Z,98317.28
2018-12-25T15:55:19.263Z,98312.52
2018-12-25T15:57:45.113Z,98312.95
2018-12-25T16:00:13.038Z,98320.69
2018-12-25T16:02:39.280Z,98308.38
2018-12-25T16:05:05.192Z,98312.87
2018-12-25T16:07:31.067Z,98317.38
2018-12-25T16:09:56.842Z,98320.21
2018-12-25T16:12:22.672Z,98318.75
2018-12-25T16:14:48.519Z,98317.89
2018-12-25T16:17:15.548Z,98324.91
2018-12-25T16:19:41.508Z,98329.05
2018-12-25T16:22:07.350Z,98334.27
2018-12-25T16:24:33.197Z,98333.38
2018-12-25T16:26:59.043Z,98328.38
2018-12-25T16:29:24.889Z,98330.41
2018-12-25T16:31:50.746Z,98328.60
2018-12-25T16:34:16.619Z,98323.89
2018-12-25T16:36:42.456Z,98327.45
2018-12-25T16:39:08.316Z,98326.15
2018-12-25T16:41:34.170Z,98321.60
2018-12-25T16:43:59.992Z,98321.60
2018-12-25T16:46:25.832Z,98323.89
2018-12-25T16:48:51.705Z,98319.80
2018-12-25T16:51:17.539Z,98318.48
2018-12-25T16:53:43.346Z,98314.20
2018-12-25T16:56:09.214Z,98312.67
2018-12-25T16:58:35.028Z,98307.55
2018-12-25T17:01:01.027Z,98307.27
2018-12-25T17:03:26.892Z,98297.98
2018-12-25T17:05:52.732Z,98297.98
2018-12-25T17:08:18.581Z,98291.78
2018-12-25T17:10:44.434Z,98293.28
2018-12-25T17:13:10.299Z,98288.16
2018-12-25T17:15:36.143Z,98297.19
2018-12-25T17:18:02.258Z,98301.32
2018-12-25T17:20:28.102Z,98296.05
2018-12-25T17:22:53.975Z,98302.20
2018-12-25T17:25:19.844Z,98300.30
2018-12-25T17:27:45.692Z,98297.41
2018-12-25T17:30:11.627Z,98305.80
2018-12-25T17:32:37.534Z,98303.92
2018-12-25T17:35:03.490Z,98303.13
2018-12-25T17:37:29.561Z,98305.45
2018-12-25T17:39:55.435Z,98299.16
2018-12-25T17:42:21.254Z,98307.03
2018-12-25T17:44:47.103Z,98312.75
2018-12-25T17:47:12.913Z,98306.97
2018-12-25T17:49:38.738Z,98312.62
2018-12-25T17:52:04.688Z,98315.07
2018-12-25T17:54:30.500Z,98308.13
2018-12-25T17:56:56.349Z,98308.71
2018-12-25T17:59:22.190Z,98312.91
2018-12-25T18:01:48.052Z,98314.72
2018-12-25T18:04:13.861Z,98309.86
2018-12-25T18:06:39.698Z,98316.37
2018-12-25T18:09:05.621Z,98309.35
2018-12-25T18:11:31.653Z,98311.45
2018-12-25T18:13:57.608Z,98316.03
2018-12-25T18:16:23.418Z,98312.41
2018-12-25T18:18:49.265Z,98318.83
2018-12-25T18:21:15.087Z,98312.70
2018-12-25T18:23:40.918Z,98314.73
2018-12-25T18:26:06.734Z,98314.13
2018-12-25T18:28:32.570Z,98312.31
2018-12-25T18:30:58.433Z,98305.51
2018-12-25T18:33:24.223Z,98307.61
2018-12-25T18:35:50.049Z,98306.52
2018-12-25T18:38:15.880Z,98302.20
2018-12-25T18:40:41.719Z,98301.31
2018-12-25T18:43:07.550Z,98306.97
2018-12-25T18:45:33.386Z,98303.13
2018-12-25T18:47:59.349Z,98302.33
2018-12-25T18:50:25.174Z,98297.84
2018-12-25T18:52:51.009Z,98300.67
2018-12-25T18:55:16.841Z,98297.05
2018-12-25T18:57:42.661Z,98303.63
2018-12-25T19:00:08.777Z,98299.66
2018-12-25T19:02:34.607Z,98303.48
2018-12-25T19:05:00.554Z,98306.59
2018-12-25T19:07:26.381Z,98312.25
2018-12-25T19:09:52.203Z,98314.50
2018-12-25T19:12:18.027Z,98309.34
2018-12-25T19:14:49.944Z,98309.12
2018-12-25T19:17:15.764Z,98314.70
2018-12-25T19:19:41.602Z,98308.41
2018-12-25T19:22:07.457Z,98308.56
2018-12-25T19:24:36.378Z,98302.53
2018-12-25T19:27:00.990Z,98306.82
2018-12-25T19:29:26.820Z,98305.09
2018-12-25T19:31:52.923Z,98297.41
2018-12-25T19:34:18.790Z,98298.86
2018-12-25T19:36:44.612Z,98295.97
2018-12-25T19:39:10.460Z,98291.20
2018-12-25T19:41:36.301Z,98286.72
2018-12-25T19:44:02.157Z,98287.70
2018-12-25T19:46:27.994Z,98290.31
2018-12-25T19:48:53.865Z,98290.31
2018-12-25T19:51:19.699Z,98297.27
2018-12-25T19:53:45.520Z,98295.67
2018-12-25T19:56:11.353Z,98289.38
2018-12-25T19:58:37.182Z,98294.52
2018-12-25T20:01:03.022Z,98280.48
2018-12-25T20:03:29.358Z,98286.48
2018-12-25T20:06:07.583Z,98282.00
2018-12-25T20:08:40.190Z,98283.31
2018-12-25T20:11:12.694Z,98281.43
2018-12-25T20:14:06.627Z,98272.53
2018-12-25T20:16:45.345Z,98281.72
2018-12-25T20:19:27.336Z,98271.80
2018-12-25T20:22:22.909Z,98269.70
2018-12-25T20:25:01.816Z,98273.97
2018-12-25T20:27:34.227Z,98265.14
2018-12-25T20:30:09.932Z,98262.31
2018-12-25T20:32:54.503Z,98268.98
2018-12-25T20:35:40.870Z,98265.72
2018-12-25T20:38:22.809Z,98259.42
2018-12-25T20:41:10.815Z,98256.81
2018-12-25T20:43:55.822Z,98264.05
2018-12-25T20:46:28.370Z,98266.38
2018-12-25T20:49:07.089Z,98262.89
2018-12-25T20:52:00.963Z,98263.91
2018-12-25T20:54:36.422Z,98255.89
2018-12-25T20:57:25.739Z,98254.59
2018-12-25T21:00:04.241Z,98257.70
2018-12-25T21:02:58.456Z,98256.91
2018-12-25T21:05:53.763Z,98255.60
2018-12-25T21:08:43.350Z,98256.73
2018-12-25T21:11:32.838Z,98251.53
2018-12-25T21:14:10.433Z,98244.07
2018-12-25T21:17:13.938Z,98246.17
2018-12-25T21:19:55.823Z,98248.20
2018-12-25T21:22:59.033Z,98253.84
2018-12-25T21:26:02.583Z,98240.03
2018-12-25T21:28:30.927Z,98237.30
2018-12-25T21:30:56.843Z,98241.92
2018-12-25T21:33:22.720Z,98248.13
2018-12-25T21:35:48.537Z,98246.91
2018-12-25T21:38:14.485Z,98243.23
2018-12-25T21:40:40.454Z,98239.52
2018-12-25T21:43:06.365Z,98240.75
2018-12-25T21:45:32.245Z,98241.83
2018-12-25T21:47:58.070Z,98239.23
2018-12-25T21:50:24.020Z,98231.92
2018-12-25T21:52:49.975Z,98226.42
2018-12-25T21:55:18.977Z,98233.61
2018-12-25T21:57:43.822Z,98229.03
2018-12-25T22:00:11.459Z,98227.51
2018-12-25T22:02:38.605Z,98227.60
2018-12-25T22:05:04.545Z,98241.42
2018-12-25T22:07:30.386Z,98236.70
2018-12-25T22:09:56.242Z,98229.52
2018-12-25T22:12:22.075Z,98225.58
2018-12-25T22:14:47.926Z,98221.73
2018-12-25T22:17:13.757Z,98207.27
2018-12-25T22:19:39.603Z,98222.45
2018-12-25T22:22:05.451Z,98229.69
2018-12-25T22:24:31.281Z,98235.69
2018-12-25T22:26:57.168Z,98236.70
2018-12-25T22:29:23.015Z,98229.03
2018-12-25T22:31:48.850Z,98226.34
2018-12-25T22:34:14.677Z,98230.03
2018-12-25T22:36:40.525Z,98225.48
2018-12-25T22:39:06.352Z,98219.48
2018-12-25T22:41:32.202Z,98217.25
2018-12-25T22:43:58.067Z,98221.15
2018-12-25T22:46:23.891Z,98219.98
2018-12-25T22:48:49.746Z,98217.82
2018-12-25T22:51:15.571Z,98219.34
2018-12-25T22:53:41.512Z,98221.15
2018-12-25T22:56:07.340Z,98221.84
2018-12-25T22:58:33.188Z,98227.56
2018-12-25T23:00:59.027Z,98223.80
2018-12-25T23:03:24.874Z,98232.41
2018-12-25T23:05:50.693Z,98226.63
2018-12-25T23:08:16.558Z,98222.72
2018-12-25T23:10:42.374Z,98224.59
2018-12-25T23:13:08.247Z,98224.59
2018-12-25T23:15:34.064Z,98225.69
2018-12-25T23:17:59.878Z,98225.69
2018-12-25T23:20:28.794Z,98225.69
2018-12-25T23:22:53.479Z,98229.66
2018-12-25T23:25:19.320Z,98218.45
2018-12-25T23:27:45.149Z,98219.37
2018-12-25T23:30:10.977Z,98219.69
2018-12-25T23:32:36.826Z,98215.78
2018-12-25T23:35:02.884Z,98219.18
2018-12-25T23:37:28.773Z,98213.69
2018-12-25T23:39:54.639Z,98209.85
2018-12-25T23:42:20.528Z,98215.78
2018-12-25T23:44:46.353Z,98229.08
2018-12-25T23:47:12.205Z,98210.87
2018-12-25T23:49:38.035Z,98216.08
2018-12-25T23:52:03.875Z,98214.09
2018-12-25T23:54:29.694Z,98209.34
2018-12-25T23:56:55.544Z,98219.83
2018-12-25T23:59:21.362Z,98215.70
